Time;durP1;ratioP1;P1;durP2;ratioP2;P2;SDS_P1;SDS_P2;PMS_P1;PMS_P2;Temp;Humidity;BMP_temperature;BMP_pressure;BME280_temperature;BME280_humidity;BME280_pressure;Samples;Min_cycle;Max_cycle;Signal;HPM_P1;HPM_P2
2023/10/14 00:02:15;;;;;;;34.63;25.83;;;12.50;99.90;;;;;;5018344;28;20128;-81
2023/10/14 00:04:44;;;;;;;32.88;26.25;;;12.50;99.90;;;;;;5033414;28;20046;-80
2023/10/14 00:07:19;;;;;;;34.60;24.92;;;12.50;99.90;;;;;;5021312;28;20152;-80
2023/10/14 00:09:50;;;;;;;33.67;23.20;;;12.50;99.90;;;;;;5020791;28;20053;-81
2023/10/14 00:12:19;;;;;;;36.38;23.90;;;12.50;99.90;;;;;;5018118;28;20034;-81
2023/10/14 00:14:56;;;;;;;34.95;24.55;;;12.40;99.90;;;;;;5025397;28;20128;-81
2023/10/14 00:17:34;;;;;;;;;;;;;;;;;;;;;
2023/10/14 00:20:05;;;;;;;33.63;23.75;;;12.50;99.90;;;;;;5012027;28;20444;-79
2023/10/14 00:22:45;;;;;;;38.30;25.90;;;12.40;99.90;;;;;;5016755;28;20046;-81
2023/10/14 00:25:23;;;;;;;38.42;26.00;;;12.40;99.90;;;;;;5028579;28;20124;-80
2023/10/14 00:27:56;;;;;;;35.42;24.40;;;12.40;99.90;;;;;;5029935;28;20025;-80
2023/10/14 00:30:38;;;;;;;34.50;24.48;;;12.30;99.90;;;;;;5042439;28;20026;-79
2023/10/14 00:33:07;;;;;;;35.50;24.23;;;12.30;99.90;;;;;;5039111;28;20038;-83
2023/10/14 00:35:42;;;;;;;38.42;25.45;;;12.30;99.90;;;;;;5035140;28;20065;-79
2023/10/14 00:38:12;;;;;;;37.15;24.38;;;12.20;99.90;;;;;;5056141;28;20043;-79
2023/10/14 00:41:03;;;;;;;37.33;25.23;;;12.30;99.90;;;;;;5049474;28;20055;-79
2023/10/14 00:43:45;;;;;;;37.67;24.45;;;12.20;99.90;;;;;;5018797;28;20109;-79
2023/10/14 00:46:33;;;;;;;35.47;26.33;;;12.20;99.90;;;;;;5021608;28;20155;-80
2023/10/14 00:49:16;;;;;;;35.60;26.80;;;12.20;99.90;;;;;;5039431;28;20575;-78
2023/10/14 00:52:00;;;;;;;38.33;27.93;;;12.20;99.90;;;;;;5011639;28;20061;-78
2023/10/14 00:54:58;;;;;;;37.63;28.73;;;12.10;99.90;;;;;;5022963;28;20052;-82
2023/10/14 01:00:45;;;;;;;39.05;29.45;;;12.10;99.90;;;;;;5012654;28;20159;-80
2023/10/14 01:03:31;;;;;;;38.13;26.10;;;12.10;99.90;;;;;;5005888;28;20048;-80
2023/10/14 01:06:20;;;;;;;36.42;27.70;;;12.10;99.90;;;;;;5034436;28;20037;-79
2023/10/14 01:09:10;;;;;;;39.80;27.00;;;12.10;99.90;;;;;;5012443;28;20498;-81
2023/10/14 01:11:44;;;;;;;42.25;27.13;;;11.90;99.90;;;;;;5040745;28;20040;-79
2023/10/14 01:14:23;;;;;;;35.85;25.77;;;11.80;99.90;;;;;;5036669;28;20056;-81
2023/10/14 01:16:59;;;;;;;37.15;24.65;;;11.80;99.90;;;;;;5043953;28;20037;-80
2023/10/14 01:19:29;;;;;;;37.08;24.70;;;11.80;99.90;;;;;;5014421;28;20042;-81
2023/10/14 01:22:07;;;;;;;34.42;23.65;;;11.80;99.90;;;;;;5022538;28;20041;-79
2023/10/14 01:24:52;;;;;;;33.63;23.25;;;11.80;99.90;;;;;;5024423;28;20099;-78
2023/10/14 01:27:33;;;;;;;34.85;25.30;;;11.80;99.90;;;;;;5041650;28;20052;-81
2023/10/14 01:30:19;;;;;;;33.25;23.52;;;11.80;99.90;;;;;;5015127;28;20511;-81
2023/10/14 01:33:00;;;;;;;32.53;22.00;;;11.80;99.90;;;;;;5041136;28;20508;-80
2023/10/14 01:35:50;;;;;;;29.52;22.00;;;11.80;99.90;;;;;;5024957;28;20056;-80
2023/10/14 01:38:38;;;;;;;28.58;19.95;;;11.90;99.90;;;;;;5022835;28;20594;-79
2023/10/14 01:41:30;;;;;;;29.17;20.70;;;11.80;99.90;;;;;;5013784;28;20095;-80
2023/10/14 01:44:09;;;;;;;28.75;21.20;;;11.70;99.90;;;;;;5025541;28;20045;-79
2023/10/14 01:46:54;;;;;;;31.83;22.20;;;11.70;99.90;;;;;;5037743;28;20049;-80
2023/10/14 01:49:29;;;;;;;32.47;22.33;;;11.80;99.90;;;;;;5037935;28;20038;-79
2023/10/14 01:52:07;;;;;;;35.50;24.88;;;11.70;99.90;;;;;;5042588;28;20545;-79
2023/10/14 01:54:44;;;;;;;36.58;24.95;;;11.50;99.90;;;;;;5024577;28;20128;-81
2023/10/14 01:57:23;;;;;;;40.85;25.25;;;11.40;99.90;;;;;;5013985;28;20033;-79
2023/10/14 01:59:56;;;;;;;37.42;24.95;;;11.30;99.90;;;;;;5020982;28;20042;-78
2023/10/14 02:02:48;;;;;;;34.47;24.67;;;11.30;99.90;;;;;;5021531;28;20044;-80
2023/10/14 02:05:30;;;;;;;34.30;23.30;;;11.40;99.90;;;;;;5031090;28;20046;-81
2023/10/14 02:08:05;;;;;;;36.35;23.90;;;11.40;99.90;;;;;;5014632;28;20060;-83
2023/10/14 02:10:55;;;;;;;34.20;23.50;;;11.40;99.90;;;;;;5013350;28;20130;-79
2023/10/14 02:13:40;;;;;;;32.67;24.60;;;11.50;99.90;;;;;;5016644;28;20037;-80
2023/10/14 02:16:17;;;;;;;31.45;24.05;;;11.40;99.90;;;;;;5012380;28;20045;-79
2023/10/14 02:19:17;;;;;;;32.88;23.63;;;11.40;99.90;;;;;;5014220;28;20063;-79
2023/10/14 02:21:57;;;;;;;;;;;11.40;99.90;;;;;;5035451;28;20400;-80
2023/10/14 02:24:34;;;;;;;34.38;25.30;;;11.40;99.90;;;;;;5011459;28;20443;-81
2023/10/14 02:27:11;;;;;;;38.53;25.70;;;11.50;99.90;;;;;;5025687;28;20535;-81
2023/10/14 02:29:48;;;;;;;41.70;27.63;;;11.40;99.90;;;;;;5012796;28;20520;-81
2023/10/14 02:32:25;;;;;;;31.35;24.23;;;11.40;99.90;;;;;;5030507;28;20088;-81
2023/10/14 02:35:01;;;;;;;34.03;23.02;;;11.40;99.90;;;;;;5023660;28;20083;-81
2023/10/14 02:37:30;;;;;;;33.88;21.15;;;11.40;99.90;;;;;;5042086;28;20116;-79
2023/10/14 02:40:00;;;;;;;35.35;21.88;;;11.40;99.90;;;;;;5038560;28;20052;-80
2023/10/14 02:42:30;;;;;;;36.85;22.85;;;11.30;99.90;;;;;;5013314;28;20033;-79
2023/10/14 02:45:04;;;;;;;29.65;20.90;;;11.30;99.90;;;;;;5037970;28;20037;-79
2023/10/14 02:47:37;;;;;;;39.40;21.83;;;11.30;99.90;;;;;;5042120;28;20040;-80
2023/10/14 02:50:07;;;;;;;40.47;24.52;;;11.20;99.90;;;;;;5041336;28;20041;-80
2023/10/14 02:52:38;;;;;;;44.15;26.20;;;11.20;99.90;;;;;;5023279;28;20067;-79
2023/10/14 02:58:03;;;;;;;46.70;27.13;;;11.20;99.90;;;;;;5050701;28;20048;-80
2023/10/14 03:00:36;;;;;;;42.03;27.88;;;11.20;99.90;;;;;;5035192;28;20040;-78
2023/10/14 03:03:11;;;;;;;50.40;27.98;;;11.20;99.90;;;;;;5019768;28;20051;-80
2023/10/14 03:05:50;;;;;;;45.27;28.53;;;11.20;99.90;;;;;;5017889;28;20044;-79
2023/10/14 03:08:22;;;;;;;42.90;26.88;;;11.30;99.90;;;;;;5037467;28;20445;-79
2023/10/14 03:10:55;;;;;;;39.58;27.15;;;11.20;99.90;;;;;;5035736;28;20516;-81
2023/10/14 03:13:25;;;;;;;41.53;26.30;;;11.20;99.90;;;;;;5038535;28;20123;-79
2023/10/14 03:15:55;;;;;;;45.20;25.67;;;11.20;99.90;;;;;;5036674;28;20063;-78
2023/10/14 03:18:36;;;;;;;40.67;26.92;;;11.30;99.90;;;;;;5025580;28;20049;-80
2023/10/14 03:21:09;;;;;;;37.33;25.40;;;11.40;99.90;;;;;;5036569;28;20041;-80
2023/10/14 03:23:38;;;;;;;40.35;24.40;;;11.30;99.90;;;;;;5021446;28;20033;-80
2023/10/14 03:26:15;;;;;;;33.63;23.10;;;11.30;99.90;;;;;;5022104;28;20044;-82
2023/10/14 03:28:54;;;;;;;34.53;23.98;;;11.30;99.90;;;;;;5038045;28;20040;-81
2023/10/14 03:38:15;;;;;;;34.20;24.10;;;11.10;99.90;;;;;;5037568;28;20122;-80
2023/10/14 03:44:09;;;;;;;35.63;25.42;;;11.20;99.90;;;;;;5064723;28;20089;-80
2023/10/14 03:46:45;;;;;;;32.05;24.33;;;11.30;99.90;;;;;;5028463;28;20072;-80
2023/10/14 03:49:33;;;;;;;35.40;24.70;;;11.20;99.90;;;;;;5074990;28;20123;-79
2023/10/14 03:52:28;;;;;;;35.17;23.85;;;11.20;99.90;;;;;;5046449;28;20167;-80
2023/10/14 03:55:00;;;;;;;37.03;24.65;;;11.10;99.90;;;;;;5029997;28;20052;-79
2023/10/14 03:58:23;;;;;;;;;;;;;;;;;;;;;
2023/10/14 04:01:04;;;;;;;37.42;24.98;;;11.10;99.90;;;;;;5064949;28;20615;-79
2023/10/14 04:03:53;;;;;;;38.53;27.45;;;10.90;99.90;;;;;;5078056;28;20104;-80
2023/10/14 04:06:41;;;;;;;51.47;32.60;;;10.90;99.90;;;;;;5080129;28;20076;-79
2023/10/14 04:09:23;;;;;;;45.33;27.40;;;10.90;99.90;;;;;;5094533;28;20037;-80
2023/10/14 04:11:59;;;;;;;41.47;24.92;;;10.90;99.90;;;;;;5084650;28;20055;-79
2023/10/14 04:14:39;;;;;;;36.72;23.23;;;10.90;99.90;;;;;;5052607;28;20044;-80
2023/10/14 04:17:19;;;;;;;33.38;22.15;;;10.90;99.90;;;;;;5059679;28;20055;-81
2023/10/14 04:20:14;;;;;;;35.03;24.15;;;10.90;99.90;;;;;;5067806;28;20102;-80
2023/10/14 04:22:43;;;;;;;37.28;25.85;;;10.80;99.90;;;;;;5078133;28;20068;-81
2023/10/14 04:25:22;;;;;;;41.03;25.73;;;10.80;99.90;;;;;;5056852;28;20495;-81
2023/10/14 04:30:45;;;;;;;37.78;26.75;;;10.80;99.90;;;;;;5047977;28;20044;-81
2023/10/14 04:33:34;;;;;;;33.45;25.25;;;10.80;99.90;;;;;;5078412;28;20053;-80
2023/10/14 04:36:36;;;;;;;38.47;26.58;;;10.90;99.90;;;;;;5049924;28;20060;-81
2023/10/14 04:39:58;;;;;;;33.63;25.25;;;10.80;99.90;;;;;;5054622;28;20147;-86
2023/10/14 04:46:15;;;;;;;32.45;24.98;;;10.70;99.90;;;;;;4966442;28;20049;-86
2023/10/14 04:48:58;;;;;;;41.50;26.27;;;10.60;99.90;;;;;;4957025;28;20250;-89
2023/10/14 04:51:46;;;;;;;39.28;25.92;;;10.70;99.90;;;;;;4969247;28;20137;-87
2023/10/14 05:00:08;;;;;;;34.63;24.27;;;10.60;99.90;;;;;;4968611;28;20600;-87
2023/10/14 05:02:42;;;;;;;32.58;24.15;;;10.50;99.90;;;;;;4971607;28;20050;-88
2023/10/14 05:05:19;;;;;;;35.00;25.42;;;10.50;99.90;;;;;;4954609;28;20047;-89
2023/10/14 05:07:58;;;;;;;35.00;22.85;;;10.40;99.90;;;;;;5044386;28;20048;-88
2023/10/14 05:10:50;;;;;;;32.72;22.10;;;10.50;99.90;;;;;;5048166;28;20045;-88
2023/10/14 05:13:31;;;;;;;33.30;21.77;;;10.50;99.90;;;;;;5029361;28;20052;-87
2023/10/14 05:19:14;;;;;;;32.83;20.85;;;10.50;99.90;;;;;;5031948;28;20076;-87
2023/10/14 05:25:39;;;;;;;34.28;24.10;;;10.60;99.90;;;;;;4993193;28;20112;-82
2023/10/14 05:28:14;;;;;;;35.03;24.60;;;10.60;99.90;;;;;;5042081;28;20482;-83
2023/10/14 05:31:09;;;;;;;41.08;23.65;;;10.60;99.90;;;;;;5025350;28;20045;-83
2023/10/14 05:33:44;;;;;;;41.97;25.50;;;10.50;99.90;;;;;;5057321;28;20089;-81
2023/10/14 05:36:20;;;;;;;47.83;25.23;;;10.50;99.90;;;;;;5055098;28;20124;-85
2023/10/14 05:38:48;;;;;;;34.63;25.00;;;10.50;99.90;;;;;;5050564;28;20051;-84
2023/10/14 05:41:21;;;;;;;35.83;24.52;;;10.50;99.90;;;;;;5037711;28;20045;-84
2023/10/14 05:44:02;;;;;;;;;;;;;;;;;;;;;
2023/10/14 05:46:41;;;;;;;28.00;21.50;;;10.70;99.90;;;;;;5038898;28;20075;-84
2023/10/14 05:49:10;;;;;;;29.38;23.08;;;10.90;99.90;;;;;;5025655;28;20494;-85
2023/10/14 05:51:43;;;;;;;33.13;23.13;;;11.00;99.90;;;;;;5028174;28;20119;-83
2023/10/14 05:54:12;;;;;;;36.53;21.83;;;11.20;99.90;;;;;;5032218;28;20060;-85
2023/10/14 05:56:45;;;;;;;26.30;20.02;;;11.20;99.90;;;;;;5028281;28;20048;-83
2023/10/14 05:59:14;;;;;;;35.65;23.58;;;11.20;99.90;;;;;;5022014;28;20046;-84
2023/10/14 06:01:46;;;;;;;31.17;21.88;;;11.20;99.90;;;;;;5030215;28;20037;-83
2023/10/14 06:04:17;;;;;;;32.03;22.42;;;11.20;99.90;;;;;;5034499;28;20048;-82
2023/10/14 06:06:46;;;;;;;33.40;23.13;;;11.20;99.90;;;;;;5032167;28;20049;-82
2023/10/14 06:09:17;;;;;;;31.70;21.45;;;11.30;99.90;;;;;;5039177;28;20037;-81
2023/10/14 06:15:34;;;;;;;27.20;19.90;;;11.40;99.90;;;;;;5030109;28;20045;-82
2023/10/14 06:27:49;;;;;;;27.90;18.33;;;12.40;99.90;;;;;;4977177;28;20050;-84
2023/10/14 06:31:00;;;;;;;23.20;17.70;;;12.60;99.90;;;;;;4980191;28;20038;-85
2023/10/14 06:34:23;;;;;;;32.25;18.35;;;13.00;99.90;;;;;;4931132;29;20047;-85
2023/10/14 06:37:41;;;;;;;25.85;19.00;;;13.20;99.90;;;;;;4908594;29;20504;-86
2023/10/14 06:40:53;;;;;;;21.77;17.33;;;13.40;1.00;;;;;;4910371;29;20056;-85
2023/10/14 06:43:42;;;;;;;24.83;18.23;;;13.60;99.90;;;;;;4876497;29;20060;-86
2023/10/14 06:46:32;;;;;;;29.50;21.17;;;13.80;99.90;;;;;;4894495;29;20045;-81
2023/10/14 06:49:05;;;;;;;32.25;23.02;;;13.90;99.90;;;;;;4920377;29;20071;-78
2023/10/14 06:51:38;;;;;;;38.03;28.25;;;14.00;99.90;;;;;;4924574;29;20050;-83
2023/10/14 06:54:09;;;;;;;47.55;34.10;;;14.20;1.00;;;;;;4913418;29;20056;-80
2023/10/14 06:56:37;;;;;;;46.35;30.63;;;14.40;99.90;;;;;;4914805;29;20047;-80
2023/10/14 06:59:06;;;;;;;36.17;27.75;;;14.60;1.00;;;;;;4970745;28;20108;-82
2023/10/14 07:01:34;;;;;;;34.40;24.60;;;14.80;1.00;;;;;;4991189;28;20089;-80
2023/10/14 07:04:02;;;;;;;33.40;26.70;;;15.00;1.00;;;;;;5006543;28;20605;-79
2023/10/14 07:06:31;;;;;;;35.03;24.92;;;15.10;1.00;;;;;;4990820;28;20608;-80
2023/10/14 07:08:58;;;;;;;28.02;22.23;;;15.30;1.00;;;;;;5002799;28;20051;-80
2023/10/14 07:11:26;;;;;;;30.95;22.80;;;15.40;2.30;;;;;;5036880;28;20056;-81
2023/10/14 07:13:54;;;;;;;32.17;22.42;;;15.40;1.00;;;;;;5039530;28;20044;-80
2023/10/14 07:16:24;;;;;;;34.88;22.45;;;15.50;1.00;;;;;;5041716;28;20106;-81
2023/10/14 07:18:51;;;;;;;26.38;20.38;;;15.60;99.90;;;;;;5022674;28;20049;-82
2023/10/14 07:21:19;;;;;;;29.98;21.05;;;15.70;1.00;;;;;;5058893;28;20091;-81
2023/10/14 07:23:47;;;;;;;34.47;22.63;;;15.90;1.00;;;;;;5032375;28;20095;-79
2023/10/14 07:26:15;;;;;;;31.00;23.15;;;16.10;1.00;;;;;;5037802;28;20048;-80
2023/10/14 07:28:44;;;;;;;28.42;21.15;;;16.20;99.90;;;;;;5042440;28;20045;-80
2023/10/14 07:31:12;;;;;;;31.38;22.55;;;16.40;1.00;;;;;;5042956;28;20045;-80
2023/10/14 07:33:41;;;;;;;29.55;19.33;;;16.60;99.90;;;;;;5041442;28;20386;-79
2023/10/14 07:36:11;;;;;;;30.58;19.40;;;16.60;1.00;;;;;;5039664;28;20034;-80
2023/10/14 07:38:42;;;;;;;26.92;17.23;;;16.70;99.90;;;;;;5037191;28;20451;-80
2023/10/14 07:41:11;;;;;;;27.23;18.20;;;16.70;99.90;;;;;;5039179;28;20041;-81
2023/10/14 07:43:39;;;;;;;22.08;17.10;;;16.80;1.00;;;;;;5042841;28;20045;-81
2023/10/14 07:46:08;;;;;;;26.92;15.82;;;16.90;1.00;;;;;;5044522;28;20099;-79
2023/10/14 07:48:37;;;;;;;28.17;16.27;;;17.00;1.00;;;;;;5044040;28;20052;-80
2023/10/14 07:51:07;;;;;;;26.58;17.33;;;17.10;1.00;;;;;;5063105;28;20040;-82
2023/10/14 07:53:35;;;;;;;21.67;15.40;;;17.30;1.00;;;;;;5078019;28;20056;-79
2023/10/14 07:56:06;;;;;;;21.23;15.80;;;17.40;1.00;;;;;;5065027;28;20504;-80
2023/10/14 07:58:36;;;;;;;28.05;14.15;;;17.60;99.90;;;;;;5061265;28;20547;-81
2023/10/14 08:01:06;;;;;;;24.30;14.13;;;17.80;1.00;;;;;;5066252;28;20037;-79
2023/10/14 08:03:36;;;;;;;24.75;14.45;;;18.00;1.00;;;;;;5059569;28;20052;-81
2023/10/14 08:06:10;;;;;;;20.83;13.85;;;18.20;1.00;;;;;;5049429;28;20045;-80
2023/10/14 08:08:47;;;;;;;23.50;13.65;;;18.40;99.90;;;;;;5044577;28;20041;-82
2023/10/14 08:11:15;;;;;;;19.60;13.48;;;18.50;99.80;;;;;;5041989;28;20041;-81
2023/10/14 08:13:43;;;;;;;20.73;13.43;;;18.60;99.90;;;;;;5038522;28;20042;-80
2023/10/14 08:16:11;;;;;;;21.42;14.73;;;18.70;1.00;;;;;;5040470;28;20041;-79
2023/10/14 08:18:41;;;;;;;25.75;14.90;;;18.90;1.00;;;;;;5039043;28;20485;-79
2023/10/14 08:21:11;;;;;;;21.13;13.25;;;18.90;1.00;;;;;;5044687;28;20526;-80
2023/10/14 08:23:39;;;;;;;25.45;15.73;;;19.10;99.90;;;;;;5042741;28;20048;-81
2023/10/14 08:26:12;;;;;;;24.05;14.90;;;19.10;99.90;;;;;;5045052;28;20082;-80
2023/10/14 08:28:40;;;;;;;22.70;14.38;;;19.20;1.00;;;;;;5046092;28;20045;-80
2023/10/14 08:31:09;;;;;;;20.27;12.73;;;19.30;99.90;;;;;;5046783;28;20552;-80
2023/10/14 08:33:36;;;;;;;23.00;13.25;;;19.40;99.90;;;;;;5046187;28;20057;-80
2023/10/14 08:36:04;;;;;;;26.70;13.75;;;19.60;1.00;;;;;;5045485;28;20051;-80
2023/10/14 08:38:34;;;;;;;20.08;12.73;;;19.70;1.00;;;;;;5046061;28;20053;-80
2023/10/14 08:41:03;;;;;;;19.38;12.40;;;19.70;1.00;;;;;;5047647;28;20052;-80
2023/10/14 08:43:35;;;;;;;23.25;13.10;;;19.80;1.00;;;;;;5066794;28;20546;-80
2023/10/14 08:46:03;;;;;;;20.30;12.32;;;19.90;1.00;;;;;;5042995;28;20141;-79
2023/10/14 08:48:32;;;;;;;23.05;12.93;;;20.00;1.00;;;;;;5045159;28;20048;-80
2023/10/14 08:51:01;;;;;;;28.48;13.98;;;20.00;1.00;;;;;;5046588;28;20401;-81
2023/10/14 08:53:33;;;;;;;21.40;13.85;;;20.30;99.90;;;;;;5046458;28;20048;-80
2023/10/14 08:56:07;;;;;;;20.30;12.38;;;20.30;1.00;;;;;;5064422;28;20146;-80
2023/10/14 08:58:36;;;;;;;21.00;12.32;;;20.40;1.00;;;;;;5065981;28;20119;-80
2023/10/14 09:01:08;;;;;;;21.05;13.35;;;20.40;1.00;;;;;;5047585;28;20140;-79
2023/10/14 09:03:36;;;;;;;16.67;10.60;;;20.40;99.90;;;;;;5048142;28;20065;-81
2023/10/14 09:06:06;;;;;;;23.30;12.15;;;20.50;1.00;;;;;;5052446;28;20066;-79
2023/10/14 09:08:34;;;;;;;18.20;10.63;;;20.60;1.00;;;;;;5043935;28;20428;-79
2023/10/14 09:11:03;;;;;;;21.17;10.70;;;20.80;1.00;;;;;;5047581;28;20676;-80
2023/10/14 09:13:33;;;;;;;17.00;10.77;;;20.80;1.00;;;;;;5047384;28;20443;-78
2023/10/14 09:16:01;;;;;;;17.98;10.70;;;21.00;1.00;;;;;;5053893;28;20045;-80
2023/10/14 09:18:28;;;;;;;23.73;10.85;;;21.10;39.80;;;;;;5081556;28;20055;-80
2023/10/14 09:21:01;;;;;;;19.80;10.55;;;21.10;89.30;;;;;;5069540;28;20089;-81
2023/10/14 09:23:32;;;;;;;23.92;11.23;;;21.20;99.90;;;;;;5064426;28;20107;-80
2023/10/14 09:26:01;;;;;;;26.25;12.38;;;21.20;98.30;;;;;;5083902;28;20052;-81
2023/10/14 09:28:32;;;;;;;21.00;11.77;;;21.40;1.00;;;;;;5072288;28;20540;-81
2023/10/14 09:31:02;;;;;;;18.35;10.50;;;21.40;1.00;;;;;;5068388;28;20048;-78
2023/10/14 09:33:31;;;;;;;15.68;9.95;;;21.50;99.90;;;;;;5045373;28;20076;-80
2023/10/14 09:36:02;;;;;;;19.60;10.60;;;21.50;1.00;;;;;;5061802;28;20420;-79
2023/10/14 09:38:32;;;;;;;15.38;9.63;;;21.60;1.00;;;;;;5041749;28;20457;-79
2023/10/14 09:41:02;;;;;;;17.02;9.93;;;21.70;99.90;;;;;;5060264;28;20049;-80
2023/10/14 09:43:35;;;;;;;21.55;9.88;;;21.70;99.90;;;;;;5043206;28;20041;-81
2023/10/14 09:46:04;;;;;;;20.00;10.73;;;21.70;1.00;;;;;;5077646;28;20049;-79
2023/10/14 09:48:34;;;;;;;18.92;10.77;;;21.80;1.00;;;;;;5073612;28;20550;-81
2023/10/14 09:51:03;;;;;;;15.60;8.95;;;21.90;99.90;;;;;;5046472;28;20049;-81
2023/10/14 09:53:32;;;;;;;18.80;9.70;;;22.00;1.00;;;;;;5052267;28;20051;-82
2023/10/14 09:56:04;;;;;;;18.60;8.57;;;22.00;99.90;;;;;;5050928;28;20060;-80
2023/10/14 09:58:35;;;;;;;13.77;9.00;;;22.10;1.00;;;;;;5062696;28;20080;-80
2023/10/14 10:01:04;;;;;;;15.73;10.82;;;22.20;47.30;;;;;;5059396;28;20442;-79
2023/10/14 10:03:36;;;;;;;15.02;9.05;;;22.30;99.90;;;;;;5044174;28;20051;-79
2023/10/14 10:06:17;;;;;;;15.63;9.88;;;22.50;1.00;;;;;;5042179;28;20049;-82
2023/10/14 10:08:59;;;;;;;17.63;10.27;;;22.60;1.00;;;;;;5044557;28;20040;-80
2023/10/14 10:11:29;;;;;;;16.10;9.13;;;22.70;99.90;;;;;;5059021;28;20071;-80
2023/10/14 10:14:00;;;;;;;16.17;10.00;;;22.70;1.00;;;;;;5044490;28;20420;-80
2023/10/14 10:16:32;;;;;;;19.73;9.77;;;22.80;1.00;;;;;;5057840;28;20042;-82
2023/10/14 10:19:01;;;;;;;18.65;8.95;;;22.80;1.00;;;;;;5042314;28;20049;-78
2023/10/14 10:21:31;;;;;;;16.08;9.20;;;22.90;1.00;;;;;;5044078;28;20036;-80
2023/10/14 10:24:18;;;;;;;17.13;9.27;;;23.00;1.00;;;;;;5041479;28;20037;-79
2023/10/14 10:26:59;;;;;;;14.35;9.25;;;23.10;1.00;;;;;;5044661;28;20614;-79
2023/10/14 10:29:28;;;;;;;59.55;14.52;;;23.10;1.00;;;;;;5041430;28;20037;-80
2023/10/14 10:32:13;;;;;;;18.17;9.93;;;23.30;1.00;;;;;;5059880;28;20041;-79
2023/10/14 10:35:13;;;;;;;16.83;10.90;;;23.30;1.00;;;;;;5061185;28;20056;-79
2023/10/14 10:37:47;;;;;;;14.63;8.73;;;23.30;1.00;;;;;;5062920;28;20051;-82
2023/10/14 10:40:21;;;;;;;15.68;8.05;;;23.40;1.00;;;;;;5063801;28;20037;-79
2023/10/14 10:42:56;;;;;;;9.82;6.07;;;23.50;1.00;;;;;;5042885;28;20132;-83
2023/10/14 10:45:29;;;;;;;13.38;8.45;;;23.60;1.00;;;;;;5057563;28;20094;-78
2023/10/14 10:47:59;;;;;;;12.15;8.02;;;23.70;38.20;;;;;;5065908;28;20051;-80
2023/10/14 10:50:28;;;;;;;15.95;11.43;;;23.70;51.00;;;;;;5042346;28;20126;-79
2023/10/14 10:53:19;;;;;;;16.65;9.48;;;23.80;59.90;;;;;;5041545;28;20067;-80
2023/10/14 10:55:49;;;;;;;25.20;9.27;;;23.80;63.30;;;;;;5066571;28;20116;-81
2023/10/14 10:58:20;;;;;;;16.88;9.27;;;23.90;52.50;;;;;;5039614;28;20063;-78
2023/10/14 11:00:50;;;;;;;15.38;7.05;;;23.90;60.80;;;;;;5041700;28;20067;-79
2023/10/14 11:03:18;;;;;;;17.30;8.77;;;23.90;69.70;;;;;;5059568;28;20041;-81
2023/10/14 11:05:49;;;;;;;11.70;7.38;;;24.00;79.00;;;;;;5043389;28;20090;-81
2023/10/14 11:08:16;;;;;;;14.20;7.15;;;24.10;57.70;;;;;;5040512;28;20045;-78
2023/10/14 11:10:45;;;;;;;19.70;7.50;;;24.30;78.10;;;;;;5044162;28;20110;-79
2023/10/14 11:13:16;;;;;;;15.10;7.35;;;24.30;88.10;;;;;;5044030;28;20513;-80
2023/10/14 11:15:45;;;;;;;14.75;5.70;;;24.30;93.10;;;;;;5038800;28;20049;-80
2023/10/14 11:18:15;;;;;;;11.23;6.60;;;24.30;93.80;;;;;;5039448;28;20040;-79
2023/10/14 11:20:45;;;;;;;14.85;6.10;;;24.50;95.70;;;;;;5060239;28;20037;-80
2023/10/14 11:23:16;;;;;;;12.27;6.45;;;24.40;98.50;;;;;;5041575;28;20040;-82
2023/10/14 11:25:45;;;;;;;21.30;6.97;;;24.40;99.90;;;;;;5058042;28;20032;-80
2023/10/14 11:28:15;;;;;;;16.65;6.78;;;24.40;99.90;;;;;;5043230;28;20147;-78
2023/10/14 11:30:45;;;;;;;15.45;6.63;;;24.50;99.90;;;;;;5080354;28;20017;-80
2023/10/14 11:33:15;;;;;;;12.13;5.85;;;24.60;99.90;;;;;;5064831;28;20057;-79
2023/10/14 11:35:43;;;;;;;15.93;5.80;;;24.60;99.90;;;;;;5044962;28;20037;-81
2023/10/14 11:38:13;;;;;;;12.75;6.22;;;24.60;99.90;;;;;;5060036;28;20041;-80
2023/10/14 11:40:42;;;;;;;13.90;7.03;;;24.70;99.90;;;;;;5059323;28;20117;-79
2023/10/14 11:43:11;;;;;;;12.07;7.97;;;24.70;99.90;;;;;;5061693;28;20085;-79
2023/10/14 11:45:43;;;;;;;13.07;5.75;;;24.70;99.90;;;;;;5042899;28;20136;-79
2023/10/14 11:48:23;;;;;;;11.95;6.18;;;24.60;99.90;;;;;;5037700;28;20527;-80
2023/10/14 11:50:58;;;;;;;12.38;5.57;;;24.70;99.90;;;;;;5040668;28;20075;-79
2023/10/14 11:53:28;;;;;;;16.63;7.25;;;24.70;99.90;;;;;;5036810;28;20059;-80
2023/10/14 11:56:00;;;;;;;16.40;5.57;;;24.70;99.90;;;;;;5045360;28;20040;-79
2023/10/14 11:58:29;;;;;;;9.95;5.50;;;24.70;99.90;;;;;;5044400;28;20063;-79
2023/10/14 12:00:57;;;;;;;17.48;6.97;;;24.70;99.90;;;;;;5045999;28;20070;-79
2023/10/14 12:03:27;;;;;;;12.75;6.00;;;24.70;99.90;;;;;;5036370;28;20404;-79
2023/10/14 12:05:57;;;;;;;11.13;7.50;;;24.70;99.90;;;;;;5041732;28;20460;-78
2023/10/14 12:08:26;;;;;;;15.25;6.90;;;24.80;99.90;;;;;;5033466;28;20053;-80
2023/10/14 12:10:54;;;;;;;11.82;6.20;;;24.80;99.90;;;;;;5027844;28;20114;-80
2023/10/14 12:13:23;;;;;;;30.50;8.65;;;24.90;99.90;;;;;;5042363;28;20589;-80
2023/10/14 12:15:53;;;;;;;15.63;6.20;;;24.90;99.90;;;;;;5043451;28;20064;-83
2023/10/14 12:18:24;;;;;;;13.65;5.88;;;24.80;99.90;;;;;;5042485;28;20052;-78
2023/10/14 12:20:54;;;;;;;15.80;5.90;;;24.80;99.90;;;;;;5039403;28;20417;-79
2023/10/14 12:23:22;;;;;;;13.00;6.50;;;24.80;99.90;;;;;;5037319;28;20048;-81
2023/10/14 12:25:50;;;;;;;12.27;6.20;;;24.80;99.90;;;;;;5024507;28;20091;-81
2023/10/14 12:28:25;;;;;;;13.05;6.00;;;24.90;99.90;;;;;;5031849;28;20048;-80
2023/10/14 12:30:53;;;;;;;15.27;7.28;;;25.00;99.90;;;;;;5039640;28;20042;-79
2023/10/14 12:33:20;;;;;;;12.27;6.55;;;25.00;99.90;;;;;;5040525;28;20587;-80
2023/10/14 12:35:51;;;;;;;15.27;8.27;;;25.00;99.90;;;;;;5060099;28;20570;-80
2023/10/14 12:38:22;;;;;;;15.60;6.80;;;25.10;99.90;;;;;;5041970;28;20052;-79
2023/10/14 12:40:50;;;;;;;14.10;6.97;;;25.10;99.90;;;;;;5062199;28;20451;-80
2023/10/14 12:43:27;;;;;;;14.02;7.72;;;25.10;99.90;;;;;;5040319;28;20071;-82
2023/10/14 12:46:09;;;;;;;13.75;6.55;;;25.20;99.90;;;;;;5034224;28;20456;-81
2023/10/14 12:48:39;;;;;;;15.40;6.53;;;25.20;99.90;;;;;;5033878;28;20460;-80
2023/10/14 12:51:12;;;;;;;11.65;5.55;;;25.30;99.90;;;;;;5034445;28;20041;-80
2023/10/14 12:53:45;;;;;;;15.85;6.00;;;25.40;99.90;;;;;;5031906;28;20041;-80
2023/10/14 12:56:15;;;;;;;13.70;6.70;;;25.60;99.90;;;;;;5032388;28;20439;-81
2023/10/14 12:58:43;;;;;;;11.80;6.07;;;25.50;99.90;;;;;;5032771;28;20046;-80
2023/10/14 13:01:16;;;;;;;14.13;6.47;;;25.40;99.90;;;;;;5043744;28;20345;-81
2023/10/14 13:03:51;;;;;;;13.02;6.35;;;25.40;99.90;;;;;;5033126;28;20045;-82
2023/10/14 13:06:22;;;;;;;14.80;6.07;;;25.30;99.90;;;;;;5039796;28;20051;-81
2023/10/14 13:08:51;;;;;;;14.98;6.65;;;25.30;99.90;;;;;;5035425;28;20029;-79
2023/10/14 13:11:19;;;;;;;16.63;6.60;;;25.20;99.90;;;;;;5041903;28;20041;-81
2023/10/14 13:13:50;;;;;;;11.80;6.60;;;25.20;99.90;;;;;;5032845;28;20076;-79
2023/10/14 13:16:18;;;;;;;14.80;6.80;;;25.20;99.90;;;;;;5032280;28;20055;-80
2023/10/14 13:18:47;;;;;;;13.98;6.82;;;25.20;99.90;;;;;;5032598;28;20591;-78
2023/10/14 13:21:17;;;;;;;16.02;6.20;;;25.20;99.90;;;;;;5033742;28;20400;-79
2023/10/14 13:23:46;;;;;;;16.20;7.70;;;25.10;99.90;;;;;;5034102;28;20056;-80
2023/10/14 13:26:16;;;;;;;20.40;8.73;;;25.10;99.90;;;;;;5036457;28;20061;-80
2023/10/14 13:28:45;;;;;;;13.57;7.00;;;25.10;99.90;;;;;;5041967;28;20274;-77
2023/10/14 13:31:14;;;;;;;17.60;6.97;;;25.20;99.90;;;;;;5046373;28;20049;-80
2023/10/14 13:33:46;;;;;;;16.30;7.05;;;25.20;99.90;;;;;;5023658;28;20053;-80
2023/10/14 13:36:14;;;;;;;12.57;7.40;;;25.30;99.90;;;;;;5040970;28;20045;-80
2023/10/14 13:38:42;;;;;;;16.23;6.97;;;25.30;99.90;;;;;;5035524;28;20128;-81
2023/10/14 13:41:13;;;;;;;13.20;7.50;;;25.30;99.90;;;;;;5036072;28;20041;-79
2023/10/14 13:43:42;;;;;;;14.80;7.57;;;25.20;99.90;;;;;;5034882;28;20092;-80
2023/10/14 13:46:10;;;;;;;15.60;7.97;;;25.20;99.90;;;;;;5034388;28;20048;-81
2023/10/14 13:48:38;;;;;;;23.30;7.95;;;25.30;99.90;;;;;;5029202;28;20694;-82
2023/10/14 13:51:06;;;;;;;18.27;7.90;;;25.30;99.90;;;;;;5026542;28;20072;-80
2023/10/14 13:53:37;;;;;;;18.17;8.80;;;25.30;99.90;;;;;;5023438;28;20546;-80
2023/10/14 13:56:10;;;;;;;14.23;7.78;;;25.20;99.90;;;;;;5028002;28;20241;-79
2023/10/14 13:58:37;;;;;;;19.02;7.47;;;25.10;99.90;;;;;;5027108;28;20056;-79
2023/10/14 14:01:11;;;;;;;15.45;8.70;;;25.20;99.90;;;;;;5032900;28;20041;-81
2023/10/14 14:03:39;;;;;;;14.55;7.97;;;25.20;99.90;;;;;;5040591;28;20056;-80